Aviation Digital Data Service (ADDS)

Output produced by METARs form (2253 UTC 11 December 2017)
found at http://www.aviationweather.gov/adds/metars/
 
KMGW 112153Z VRB04KT 10SM SCT075 05/M07 A2985 RMK AO2 SLP116 T00501067
KMGW 112053Z VRB05KT 10SM BKN070 BKN110 06/M07 A2989 RMK AO2 SLP128 T00561067 58029
KMGW 111953Z 21007KT 170V240 10SM OVC110 04/M07 A2992 RMK AO2 SLP141 T00441067
KMGW 111853Z 20006KT 10SM OVC100 04/M06 A2994 RMK AO2 SLP149 T00441061
KMGW 111753Z 19010G15KT 10SM BKN120 04/M06 A2998 RMK AO2 SLP160 T00391061 10039 20006 58020
KMGW 111653Z 21009G16KT 10SM FEW034 03/M06 A3002 RMK AO2 SLP175 T00281061
KMGW 111553Z 22005KT 10SM CLR 02/M07 A3003 RMK AO2 SLP179 T00221067
KMGW 111453Z 22004KT 10SM SCT032 01/M07 A3004 RMK AO2 SLP182 T00111067 58000
KMGW 111353Z VRB05KT 10SM BKN033 01/M07 A3005 RMK AO2 SLP188 T00061072
KMGW 111253Z VRB04KT 10SM OVC034 01/M07 A3006 RMK AO2 SLP191 T00061072
KMGW 111153Z VRB03KT 10SM OVC035 01/M07 A3004 RMK AO2 SLP183 T00061067 10011 20006 50008
KMGW 111053Z AUTO 24004KT 10SM OVC041 01/M07 A3004 RMK AO2 SLP183 T00111072
KMGW 110953Z AUTO VRB04KT 10SM OVC039 01/M08 A3002 RMK AO2 SLP177 T00111078
KMGW 110853Z AUTO 23005KT 10SM OVC037 01/M08 A3001 RMK AO2 SLP174 T00111078 53006
KMGW 110753Z AUTO 22005KT 10SM OVC037 01/M08 A3001 RMK AO2 SLP172 T00111083
KMGW 110653Z AUTO 22008G15KT 10SM OVC040 01/M08 A2999 RMK AO2 SLP167 T00111083
KMGW 110553Z AUTO 22005KT 10SM OVC042 01/M08 A2999 RMK AO2 SLP168 T00111083 10011 20000 58006
KMGW 110453Z AUTO 21005KT 10SM OVC046 01/M08 A3000 RMK AO2 SLP172 T00061083 400061022
KMGW 110353Z 21005KT 10SM OVC050 01/M08 A3001 RMK AO2 SLP174 T00061083
KMGW 110253Z 21004KT 10SM OVC060 00/M08 A3001 RMK AO2 SLP174 T00001078 51005
KMGW 110153Z 20003KT 10SM OVC060 00/M08 A3001 RMK AO2 SLP174 T00001078
KMGW 110053Z 20005KT 10SM OVC060 00/M08 A3000 RMK AO2 SLP172 T00001078
KMGW 102353Z 20003KT 10SM OVC090 00/M08 A2999 RMK AO2 SLP169 T00001078 10000 21006 51002